Time;durP1;ratioP1;P1;durP2;ratioP2;P2;SDS_P1;SDS_P2;PMS_P1;PMS_P2;Temp;Humidity;BMP_temperature;BMP_pressure;BME280_temperature;BME280_humidity;BME280_pressure;Samples;Min_cycle;Max_cycle;Signal;HPM_P1;HPM_P2
2023/09/06 04:30:24;;;;;;;8.27;3.37;;;15.90;87.20;;;;;;6249592;22;20187;-44
2023/09/06 04:32:52;;;;;;;4.93;3.10;;;16.00;80.50;;;;;;6247919;23;20166;-44
2023/09/06 04:35:45;;;;;;;9.37;3.80;;;16.00;82.20;;;;;;6247830;23;20171;-44
2023/09/06 04:38:20;;;;;;;7.00;3.50;;;16.00;80.80;;;;;;6238172;23;20656;-48
2023/09/06 04:41:11;;;;;;;4.93;3.70;;;16.00;73.70;;;;;;6247919;23;20155;-43
2023/09/06 04:43:37;;;;;;;6.13;3.40;;;16.00;62.60;;;;;;6223001;23;20531;-47
2023/09/06 04:46:03;;;;;;;4.40;3.00;;;16.10;58.70;;;;;;6249040;22;20195;-48
2023/09/06 04:48:29;;;;;;;5.80;2.80;;;16.00;54.10;;;;;;6247991;23;20160;-53
2023/09/06 04:51:05;;;;;;;6.73;2.97;;;16.10;51.60;;;;;;6249379;22;20234;-44
2023/09/06 04:53:30;;;;;;;8.73;3.37;;;16.10;49.40;;;;;;6248035;23;20238;-47
2023/09/06 13:30:06;;;;;;;3.72;2.88;;;31.60;99.90;;;;;;6249713;22;20542;-50
2023/09/06 13:32:32;;;;;;;5.68;3.05;;;31.60;62.00;;;;;;6247727;23;20474;-45
2023/09/06 13:34:59;;;;;;;3.65;2.85;;;31.60;25.50;;;;;;6249085;22;20247;-45
2023/09/06 13:37:26;;;;;;;3.70;3.08;;;31.70;55.00;;;;;;6249168;22;20318;-45
2023/09/06 13:39:53;;;;;;;4.50;2.92;;;31.70;35.30;;;;;;6247585;23;20152;-50
2023/09/06 13:42:20;;;;;;;4.70;2.67;;;31.70;21.70;;;;;;6249028;22;20293;-46
2023/09/06 13:44:45;;;;;;;5.35;3.40;;;31.60;21.60;;;;;;6247592;23;20258;-49
2023/09/06 13:47:15;;;;;;;6.25;3.28;;;31.80;38.90;;;;;;6249805;23;20159;-49
2023/09/06 13:49:42;;;;;;;5.10;2.65;;;31.80;58.40;;;;;;6247904;23;20159;-49
2023/09/06 13:52:10;;;;;;;4.40;3.17;;;31.80;59.50;;;;;;6248850;22;20182;-45
2023/09/06 13:54:41;;;;;;;5.13;2.70;;;31.90;83.50;;;;;;6248989;22;20222;-47
2023/09/06 13:57:07;;;;;;;4.38;2.60;;;32.00;53.20;;;;;;6246910;23;20148;-45
2023/09/06 13:59:33;;;;;;;4.15;3.33;;;32.00;88.30;;;;;;6247259;23;20625;-46
2023/09/06 14:02:00;;;;;;;6.38;3.13;;;32.00;67.90;;;;;;6249488;22;20159;-45
2023/09/06 14:04:27;;;;;;;4.95;2.72;;;32.10;31.40;;;;;;6246571;23;20183;-48
2023/09/06 14:06:54;;;;;;;5.05;3.00;;;32.00;17.30;;;;;;6247011;23;20178;-50
2023/09/06 14:09:22;;;;;;;3.67;2.90;;;32.10;20.30;;;;;;6248951;22;20156;-46
2023/09/06 14:11:48;;;;;;;5.47;2.85;;;32.00;14.60;;;;;;6249114;22;20151;-46
2023/09/06 14:14:13;;;;;;;5.35;2.42;;;32.00;15.20;;;;;;6248546;23;20160;-48
2023/09/06 14:16:40;;;;;;;3.25;2.67;;;32.00;32.30;;;;;;6248938;23;20174;-45
2023/09/06 14:19:06;;;;;;;3.85;2.83;;;32.00;10.90;;;;;;6249386;22;20168;-49
2023/09/06 14:21:33;;;;;;;5.35;2.50;;;32.00;7.40;;;;;;6248789;23;20155;-48
2023/09/06 14:24:01;;;;;;;6.70;2.67;;;32.00;1.00;;;;;;6246752;23;20225;-46
2023/09/06 14:26:26;;;;;;;4.78;2.67;;;32.00;1.00;;;;;;6197410;23;20176;-50
2023/09/06 14:28:53;;;;;;;3.85;2.60;;;32.00;23.10;;;;;;6246524;23;20258;-47
2023/09/06 14:31:19;;;;;;;4.78;2.50;;;32.00;1.00;;;;;;6246425;23;20175;-49
2023/09/06 14:33:45;;;;;;;4.18;2.50;;;32.00;5.70;;;;;;6246524;23;20221;-45
2023/09/06 14:36:10;;;;;;;8.15;3.10;;;32.10;13.50;;;;;;6246636;23;20187;-49
2023/09/06 14:38:37;;;;;;;4.13;2.45;;;32.10;3.60;;;;;;6248322;23;20183;-45
2023/09/06 14:41:03;;;;;;;4.43;2.35;;;32.10;1.00;;;;;;6221099;23;20159;-49
2023/09/06 14:43:29;;;;;;;8.55;2.85;;;32.10;1.00;;;;;;6248193;22;20198;-50
2023/09/06 14:46:09;;;;;;;2.97;2.20;;;32.10;1.00;;;;;;6246172;23;20692;-46
2023/09/06 14:48:43;;;;;;;6.90;2.55;;;32.10;3.00;;;;;;6246311;23;20159;-46
2023/09/06 14:51:34;;;;;;;3.33;2.90;;;32.10;1.00;;;;;;6247022;23;20159;-46
2023/09/06 14:54:10;;;;;;;5.35;2.55;;;32.10;1.00;;;;;;6245842;23;20151;-46
2023/09/06 14:56:46;;;;;;;4.57;2.53;;;32.00;1.00;;;;;;6246426;23;20199;-45
2023/09/06 14:59:21;;;;;;;3.88;2.45;;;32.00;1.00;;;;;;6247605;22;20187;-47
2023/09/06 15:01:50;;;;;;;2.70;2.45;;;32.10;3.90;;;;;;6221517;23;20162;-45
2023/09/06 15:04:15;;;;;;;2.88;2.22;;;32.10;2.90;;;;;;6246677;23;20178;-50
2023/09/06 15:06:41;;;;;;;3.30;2.50;;;32.10;1.00;;;;;;6248497;23;20172;-49
2023/09/06 15:09:07;;;;;;;2.97;2.50;;;32.00;1.00;;;;;;6246382;23;20197;-50
2023/09/06 15:11:33;;;;;;;4.88;2.70;;;32.00;1.00;;;;;;6246534;23;20148;-50
2023/09/06 15:13:59;;;;;;;4.15;2.63;;;32.00;1.00;;;;;;6246854;23;20539;-50
2023/09/06 15:16:25;;;;;;;4.28;2.60;;;32.00;1.00;;;;;;6248028;23;20172;-45
2023/09/06 15:18:51;;;;;;;5.30;2.72;;;32.00;1.00;;;;;;6246236;23;20202;-49
2023/09/06 15:21:16;;;;;;;3.33;2.47;;;31.90;1.00;;;;;;6246003;23;20159;-50
2023/09/06 15:23:45;;;;;;;3.97;2.60;;;31.90;1.00;;;;;;6247917;23;20148;-47
2023/09/06 15:26:17;;;;;;;4.38;2.80;;;31.90;1.00;;;;;;6246129;23;20175;-45
2023/09/06 15:28:44;;;;;;;6.35;2.65;;;31.90;1.00;;;;;;6246115;23;20242;-49
2023/09/06 15:31:10;;;;;;;4.97;3.05;;;31.90;1.00;;;;;;6247641;22;20221;-48
2023/09/06 15:33:38;;;;;;;3.35;2.75;;;31.90;1.00;;;;;;6245811;23;20167;-44
2023/09/06 15:36:08;;;;;;;5.75;2.78;;;31.90;1.00;;;;;;6245387;23;20554;-49
2023/09/06 15:38:36;;;;;;;4.38;2.70;;;31.90;1.00;;;;;;6246027;23;20697;-49
2023/09/06 15:41:05;;;;;;;4.53;2.88;;;31.90;1.00;;;;;;6221063;23;20183;-46
2023/09/06 15:43:36;;;;;;;3.38;2.70;;;31.80;1.00;;;;;;6246168;23;20160;-45
2023/09/06 15:46:02;;;;;;;3.53;2.75;;;31.90;1.00;;;;;;6246151;23;20210;-57
2023/09/06 15:48:28;;;;;;;3.45;2.80;;;31.90;1.00;;;;;;6246093;23;20190;-49
2023/09/06 15:50:54;;;;;;;5.22;2.88;;;31.90;1.00;;;;;;6247820;23;20163;-49
2023/09/06 15:53:21;;;;;;;2.70;2.50;;;31.90;1.00;;;;;;6249769;23;20151;-44
2023/09/06 15:55:49;;;;;;;5.28;2.65;;;31.90;1.00;;;;;;6248141;23;20187;-44
2023/09/06 15:58:28;;;;;;;5.10;2.70;;;31.80;1.00;;;;;;6248000;23;20194;-46
2023/09/06 16:00:59;;;;;;;5.65;2.80;;;31.80;1.00;;;;;;6248481;23;20539;-46
2023/09/06 16:03:26;;;;;;;7.30;3.00;;;31.80;1.00;;;;;;6249670;22;20197;-45
2023/09/06 16:05:52;;;;;;;6.10;2.78;;;31.80;1.00;;;;;;6247835;23;20179;-50
2023/09/06 16:08:19;;;;;;;4.05;2.78;;;31.80;1.00;;;;;;6249874;23;20616;-44
2023/09/06 16:10:47;;;;;;;5.82;2.60;;;31.80;1.00;;;;;;6223980;23;20234;-45
2023/09/06 16:13:13;;;;;;;3.40;3.10;;;31.80;1.00;;;;;;6247941;23;20163;-49
2023/09/06 16:15:39;;;;;;;3.53;3.00;;;31.70;1.00;;;;;;6249104;22;20205;-49
2023/09/06 16:18:04;;;;;;;4.35;2.60;;;31.70;13.60;;;;;;6249257;23;20175;-49
2023/09/06 16:20:32;;;;;;;3.92;2.70;;;31.70;3.80;;;;;;6249141;23;20152;-44
2023/09/06 16:22:59;;;;;;;6.38;3.20;;;31.60;4.30;;;;;;6249124;23;20223;-50
2023/09/06 16:25:25;;;;;;;3.45;2.70;;;31.60;8.00;;;;;;6247388;23;20632;-45
2023/09/06 16:27:50;;;;;;;8.60;2.97;;;31.50;4.30;;;;;;6249327;23;20159;-45
2023/09/06 16:30:17;;;;;;;4.15;2.80;;;31.40;11.80;;;;;;6247153;23;20183;-49
2023/09/06 16:32:43;;;;;;;8.02;2.83;;;31.30;12.40;;;;;;6247097;23;20264;-47
2023/09/06 16:35:09;;;;;;;4.75;3.08;;;31.30;16.40;;;;;;6247326;23;20191;-50
2023/09/06 16:37:38;;;;;;;7.90;2.55;;;31.20;19.40;;;;;;6248951;23;20206;-47
2023/09/06 16:40:05;;;;;;;3.75;2.67;;;31.00;20.20;;;;;;6247303;23;20159;-50
2023/09/06 16:42:31;;;;;;;7.57;2.95;;;30.90;24.20;;;;;;6249088;22;20158;-49
2023/09/06 16:44:56;;;;;;;4.97;2.90;;;30.70;21.50;;;;;;6248347;23;20234;-49
2023/09/06 16:47:23;;;;;;;5.32;3.15;;;30.60;12.30;;;;;;6247341;23;20246;-45
2023/09/06 16:49:51;;;;;;;5.00;2.95;;;30.50;11.00;;;;;;6247237;23;20155;-50
2023/09/06 16:52:16;;;;;;;6.60;3.00;;;30.30;8.30;;;;;;6248601;22;20152;-50
2023/09/06 16:54:42;;;;;;;4.40;2.95;;;30.20;3.60;;;;;;6246850;23;20176;-49
2023/09/06 16:57:17;;;;;;;7.93;3.10;;;30.00;6.40;;;;;;6247196;23;20473;-45
2023/09/06 16:59:43;;;;;;;5.47;3.38;;;29.90;2.70;;;;;;6247043;23;20239;-48
2023/09/06 17:02:10;;;;;;;4.88;3.10;;;29.80;2.20;;;;;;6247150;23;20231;-43
2023/09/06 17:04:35;;;;;;;4.72;3.03;;;29.60;3.20;;;;;;6248120;22;20179;-49
2023/09/06 17:07:01;;;;;;;4.78;3.00;;;29.50;1.00;;;;;;6247008;23;20156;-44
2023/09/06 17:09:27;;;;;;;5.75;3.03;;;29.30;1.00;;;;;;6246597;23;20195;-43
2023/09/06 17:11:53;;;;;;;5.45;3.10;;;29.20;1.00;;;;;;6246795;23;20620;-45
2023/09/06 17:14:19;;;;;;;6.10;2.95;;;29.10;1.00;;;;;;6248341;23;20234;-45
2023/09/06 17:16:44;;;;;;;6.35;3.25;;;28.90;1.00;;;;;;6246641;23;20242;-45
2023/09/06 17:19:10;;;;;;;4.03;2.97;;;28.70;1.00;;;;;;6246749;23;20175;-45
2023/09/06 20:48:28;;;;;;;6.40;4.30;;;20.10;1.00;;;;;;6185553;23;20221;-91
2023/09/06 20:51:01;;;;;;;6.63;4.23;;;20.10;1.00;;;;;;6136132;23;20158;-92
2023/09/06 20:53:31;;;;;;;5.90;4.50;;;20.70;1.00;;;;;;6112998;23;20166;-92
2023/09/06 20:55:57;;;;;;;5.07;4.20;;;20.10;1.00;;;;;;6136766;23;20320;-91
2023/09/06 20:58:24;;;;;;;4.37;3.93;;;20.20;1.00;;;;;;6135796;23;20634;-91
2023/09/06 21:00:54;;;;;;;6.07;4.07;;;20.10;1.00;;;;;;6135703;23;20204;-90
2023/09/06 21:03:20;;;;;;;6.67;4.27;;;19.90;1.00;;;;;;6137065;23;20166;-91
2023/09/06 21:05:57;;;;;;;5.97;3.57;;;20.00;1.00;;;;;;6134525;23;20178;-90
2023/09/06 21:08:23;;;;;;;4.20;3.57;;;20.10;1.00;;;;;;6155879;23;20145;-90
2023/09/06 21:10:49;;;;;;;5.73;4.00;;;20.00;1.00;;;;;;6137193;23;20185;-92
2023/09/06 21:13:15;;;;;;;5.37;3.73;;;20.00;1.00;;;;;;6135713;23;20173;-89
2023/09/06 21:15:41;;;;;;;4.47;4.07;;;20.00;1.00;;;;;;6134892;23;20201;-91
2023/09/06 21:18:08;;;;;;;6.03;3.87;;;20.10;1.00;;;;;;6135915;23;20188;-90
2023/09/06 21:20:34;;;;;;;4.73;3.93;;;19.80;1.00;;;;;;6134447;23;20162;-91
2023/09/06 21:22:59;;;;;;;6.37;4.13;;;19.90;1.00;;;;;;6134790;23;20161;-88
2023/09/06 21:25:25;;;;;;;5.17;4.17;;;19.90;1.00;;;;;;6115823;23;20268;-90
2023/09/06 21:27:51;;;;;;;6.77;4.07;;;19.70;1.00;;;;;;6136144;23;20161;-89
2023/09/06 21:30:16;;;;;;;7.07;4.10;;;19.70;1.00;;;;;;6135364;23;20161;-90
2023/09/06 21:32:42;;;;;;;4.63;3.90;;;19.60;1.00;;;;;;6135918;23;20157;-92
2023/09/06 21:35:11;;;;;;;6.80;4.10;;;19.40;1.00;;;;;;6135108;23;20182;-91
2023/09/06 21:37:37;;;;;;;4.67;4.07;;;19.40;1.00;;;;;;6137040;23;20171;-90
2023/09/06 21:40:03;;;;;;;8.50;4.17;;;19.30;1.00;;;;;;6135735;23;20162;-90
2023/09/06 21:42:29;;;;;;;4.37;3.90;;;19.30;1.00;;;;;;6135386;23;20204;-91
2023/09/06 21:44:54;;;;;;;6.57;4.10;;;19.90;1.00;;;;;;6133849;23;20188;-90
2023/09/06 21:47:20;;;;;;;4.20;3.70;;;19.20;1.00;;;;;;6134894;23;20176;-91
2023/09/06 21:49:45;;;;;;;6.03;4.03;;;19.10;1.00;;;;;;6135850;23;20157;-91
2023/09/06 21:52:11;;;;;;;5.07;4.43;;;19.10;1.00;;;;;;6134824;23;20595;-92
2023/09/06 21:54:38;;;;;;;6.10;3.90;;;19.00;1.00;;;;;;6135435;23;20606;-91
2023/09/06 21:57:04;;;;;;;3.73;3.37;;;19.20;1.00;;;;;;6134948;23;20174;-90
2023/09/06 21:59:29;;;;;;;4.57;4.00;;;18.90;1.00;;;;;;6135430;23;20191;-89
2023/09/06 22:01:55;;;;;;;8.00;4.20;;;18.80;1.00;;;;;;6110362;23;20161;-91
2023/09/06 22:04:20;;;;;;;4.87;3.73;;;18.80;1.00;;;;;;6135192;23;20189;-90
2023/09/06 22:06:46;;;;;;;7.63;3.93;;;18.80;1.00;;;;;;6134424;23;20178;-90
2023/09/06 22:09:13;;;;;;;7.43;4.00;;;18.70;1.00;;;;;;6134727;23;20184;-92
2023/09/06 22:11:39;;;;;;;5.00;4.07;;;18.80;1.00;;;;;;6134699;23;20161;-90
2023/09/06 22:14:05;;;;;;;4.33;3.93;;;18.50;1.00;;;;;;6135399;23;20188;-89
2023/09/06 22:16:32;;;;;;;5.40;4.03;;;18.60;1.00;;;;;;6134195;23;20209;-89
2023/09/06 22:18:57;;;;;;;6.77;4.37;;;18.60;1.00;;;;;;6134433;23;20185;-91
2023/09/06 22:21:23;;;;;;;8.97;4.30;;;18.50;1.00;;;;;;6109711;23;20244;-91
2023/09/06 22:23:49;;;;;;;4.90;4.40;;;18.50;1.00;;;;;;6135419;23;20444;-91
2023/09/06 22:26:15;;;;;;;6.17;3.97;;;18.50;1.00;;;;;;6134449;23;20185;-91
2023/09/06 22:28:41;;;;;;;4.97;4.33;;;18.50;1.00;;;;;;6134728;23;20224;-89
2023/09/06 22:31:06;;;;;;;5.90;4.30;;;18.40;1.00;;;;;;6134571;23;20162;-92
2023/09/06 22:33:33;;;;;;;7.57;4.40;;;18.50;1.00;;;;;;6135115;23;20168;-91
2023/09/06 22:35:58;;;;;;;4.63;4.10;;;18.40;1.00;;;;;;6134995;23;20639;-91
2023/09/06 22:38:24;;;;;;;4.93;4.40;;;18.40;1.00;;;;;;6134742;23;20200;-90
2023/09/06 22:40:49;;;;;;;5.03;4.03;;;18.40;1.00;;;;;;6134789;23;20237;-91
2023/09/06 22:43:16;;;;;;;6.03;4.77;;;18.70;1.00;;;;;;6135303;23;20184;-91
2023/09/06 22:45:44;;;;;;;5.13;4.47;;;18.50;1.00;;;;;;6135076;23;20177;-89
2023/09/06 22:48:09;;;;;;;7.90;4.07;;;18.50;1.00;;;;;;6149352;23;20180;-92
2023/09/06 22:50:36;;;;;;;6.77;4.77;;;16.40;1.00;;;;;;6163209;23;20502;-92
2023/09/06 22:53:02;;;;;;;5.60;4.13;;;18.80;1.00;;;;;;6164193;23;20593;-92
2023/09/06 22:55:28;;;;;;;6.20;4.80;;;18.30;1.00;;;;;;6163637;23;20191;-92
2023/09/06 22:57:54;;;;;;;5.53;4.90;;;18.20;1.00;;;;;;6190991;23;20184;-91
2023/09/06 23:00:21;;;;;;;5.80;4.80;;;18.10;1.00;;;;;;6164078;23;20223;-92
2023/09/06 23:02:46;;;;;;;7.77;4.70;;;18.10;1.00;;;;;;6163749;23;20157;-91
2023/09/06 23:05:12;;;;;;;6.60;4.90;;;18.10;1.00;;;;;;6164283;23;20609;-91
2023/09/06 23:07:39;;;;;;;6.40;4.57;;;18.10;1.00;;;;;;6163452;23;20164;-90
2023/09/06 23:10:05;;;;;;;6.17;4.50;;;18.10;1.00;;;;;;6163431;23;20161;-92
2023/09/06 23:12:31;;;;;;;6.73;4.60;;;18.00;1.00;;;;;;6163682;23;20216;-90
2023/09/06 23:14:59;;;;;;;5.67;4.80;;;18.00;1.00;;;;;;6163639;23;20586;-89
2023/09/06 23:17:29;;;;;;;6.27;4.63;;;18.00;1.00;;;;;;6162934;23;20601;-91
2023/09/06 23:19:59;;;;;;;5.03;4.60;;;18.00;1.00;;;;;;6164344;23;20149;-92
2023/09/06 23:22:25;;;;;;;5.07;4.57;;;18.00;1.00;;;;;;6163309;23;20217;-92
2023/09/06 23:24:56;;;;;;;12.33;5.43;;;18.00;1.00;;;;;;6163216;23;20176;-89
2023/09/06 23:27:24;;;;;;;7.00;5.10;;;18.50;1.00;;;;;;6165066;23;20149;-92
2023/09/06 23:29:57;;;;;;;7.57;4.70;;;17.70;1.00;;;;;;6163504;23;20184;-90
2023/09/06 23:32:26;;;;;;;5.77;5.10;;;17.70;1.00;;;;;;6162762;23;20512;-91
2023/09/06 23:34:53;;;;;;;7.20;5.33;;;18.20;1.00;;;;;;6163218;23;20239;-91
2023/09/06 23:37:22;;;;;;;6.00;4.90;;;17.60;1.00;;;;;;6163310;23;20187;-92
2023/09/06 23:39:48;;;;;;;7.67;5.20;;;18.00;1.00;;;;;;6163144;23;20168;-91
2023/09/06 23:42:16;;;;;;;7.27;5.30;;;17.60;1.00;;;;;;6162840;23;20167;-90
2023/09/06 23:44:45;;;;;;;7.17;5.67;;;17.70;1.00;;;;;;6164022;23;20157;-91
2023/09/06 23:47:13;;;;;;;7.20;5.27;;;17.80;1.00;;;;;;6160154;23;20176;-88
2023/09/06 23:49:39;;;;;;;8.03;5.57;;;19.10;1.00;;;;;;6137122;23;20172;-90
2023/09/06 23:52:06;;;;;;;7.07;5.63;;;18.30;1.00;;;;;;6133671;23;20273;-90
2023/09/06 23:54:31;;;;;;;10.53;6.10;;;17.70;1.00;;;;;;6133562;23;20232;-91
2023/09/06 23:56:57;;;;;;;10.73;6.40;;;17.30;1.00;;;;;;6133272;23;20626;-91
2023/09/06 23:59:23;;;;;;;9.20;7.00;;;17.40;1.00;;;;;;6133514;23;20185;-91
